Time;durP1;ratioP1;P1;durP2;ratioP2;P2;SDS_P1;SDS_P2;PMS_P1;PMS_P2;Temp;Humidity;BMP_temperature;BMP_pressure;BME280_temperature;BME280_humidity;BME280_pressure;Samples;Min_cycle;Max_cycle;Signal;HPM_P1;HPM_P2
2023/03/07 00:01:36;;;;;;;0.60;0.60;;;;;;;7.35;97.79;98811.56;5056171;28;20196;-66
2023/03/07 00:04:03;;;;;;;0.57;0.57;;;;;;;7.36;96.80;98813.25;5058218;28;20219;-66
2023/03/07 00:06:30;;;;;;;0.60;0.60;;;;;;;7.33;97.35;98807.41;5058492;28;20660;-66
2023/03/07 00:08:59;;;;;;;0.50;0.50;;;;;;;7.30;97.23;98802.38;5055920;28;20584;-65
2023/03/07 00:11:26;;;;;;;0.50;0.50;;;;;;;7.26;97.05;98800.78;5056860;28;20204;-65
2023/03/07 00:13:55;;;;;;;1.03;1.03;;;;;;;7.24;96.76;98797.41;5058583;28;20197;-65
2023/03/07 00:16:23;;;;;;;0.57;0.57;;;;;;;7.16;96.54;98802.72;5063868;28;20263;-66
2023/03/07 00:18:50;;;;;;;1.00;1.00;;;;;;;7.07;97.12;98810.63;5067115;28;20250;-66
2023/03/07 00:21:20;;;;;;;0.63;0.63;;;;;;;6.80;98.12;98786.66;5064905;28;20201;-65
2023/03/07 00:23:47;;;;;;;0.53;0.53;;;;;;;6.90;98.67;98801.72;5060131;28;20192;-65
2023/03/07 00:26:15;;;;;;;0.60;0.60;;;;;;;6.89;98.52;98800.88;5062528;28;20187;-66
2023/03/07 00:28:42;;;;;;;0.50;0.50;;;;;;;6.91;98.63;98794.06;5064693;28;20205;-65
2023/03/07 00:31:11;;;;;;;0.60;0.60;;;;;;;6.87;97.67;98782.25;5059230;28;20204;-65
2023/03/07 00:33:39;;;;;;;0.50;0.50;;;;;;;6.86;97.69;98785.66;5063002;28;20200;-66
2023/03/07 00:36:08;;;;;;;0.50;0.50;;;;;;;6.85;97.87;98781.44;5053688;28;20216;-65
2023/03/07 00:38:35;;;;;;;0.50;0.50;;;;;;;6.86;98.12;98780.56;5069132;28;20204;-65
2023/03/07 00:41:04;;;;;;;0.50;0.50;;;;;;;6.84;97.83;98777.25;5068700;28;20200;-65
2023/03/07 00:43:31;;;;;;;0.60;0.60;;;;;;;6.83;98.48;98778.94;5063772;28;20668;-66
2023/03/07 00:45:58;;;;;;;1.30;1.20;;;;;;;6.83;98.35;98770.47;5059512;28;20196;-65
2023/03/07 00:48:27;;;;;;;0.60;0.60;;;;;;;6.82;98.27;98769.63;5059076;28;20204;-65
2023/03/07 00:50:54;;;;;;;0.50;0.50;;;;;;;6.82;97.76;98771.31;5071449;28;20205;-65
2023/03/07 00:53:22;;;;;;;0.60;0.60;;;;;;;6.83;97.43;98780.66;5066512;28;20208;-66
2023/03/07 00:55:57;;;;;;;0.50;0.50;;;;;;;6.80;97.53;98766.28;5062196;28;20904;-65
2023/03/07 00:58:24;;;;;;;1.17;1.10;;;;;;;6.77;97.46;98770.63;5065577;28;20199;-66
2023/03/07 01:00:51;;;;;;;0.60;0.60;;;;;;;6.70;97.69;98766.53;5065257;28;20253;-65
2023/03/07 01:03:19;;;;;;;0.50;0.50;;;;;;;6.69;98.11;98765.69;5062279;28;20258;-66
2023/03/07 01:05:48;;;;;;;1.00;1.00;;;;;;;6.65;97.48;98765.84;5054997;28;20278;-65
2023/03/07 01:08:15;;;;;;;0.63;0.63;;;;;;;6.58;97.36;98764.31;5066085;28;20207;-65
2023/03/07 01:10:42;;;;;;;0.60;0.60;;;;;;;6.49;97.63;98755.19;5063080;28;20215;-65
2023/03/07 01:13:09;;;;;;;0.50;0.50;;;;;;;6.48;98.15;98752.66;5064827;28;20576;-66
2023/03/07 01:15:37;;;;;;;0.90;0.90;;;;;;;6.47;97.75;98756.06;5063352;28;20291;-65
2023/03/07 01:18:04;;;;;;;0.70;0.70;;;;;;;6.42;98.34;98757.91;5061851;28;20693;-65
2023/03/07 01:20:31;;;;;;;0.60;0.60;;;;;;;6.40;98.19;98749.47;5060516;28;20254;-66
2023/03/07 01:23:00;;;;;;;0.60;0.60;;;;;;;6.33;98.63;98744.50;5061669;28;20196;-66
2023/03/07 01:25:27;;;;;;;0.70;0.70;;;;;;;6.26;98.55;98742.16;5059345;28;20277;-65
2023/03/07 01:27:55;;;;;;;0.50;0.50;;;;;;;6.23;98.81;98742.25;5053358;28;20193;-65
2023/03/07 01:30:22;;;;;;;0.90;0.90;;;;;;;6.20;98.61;98743.13;5060121;28;20754;-66
2023/03/07 01:32:54;;;;;;;0.60;0.60;;;;;;;6.13;98.44;98751.78;5055868;28;20250;-65
2023/03/07 01:35:21;;;;;;;0.57;0.57;;;;;;;6.07;98.16;98749.38;5064397;28;20204;-65
2023/03/07 01:37:48;;;;;;;0.60;0.60;;;;;;;6.06;97.33;98749.41;5058696;28;20220;-65
2023/03/07 01:40:16;;;;;;;0.60;0.60;;;;;;;6.03;97.66;98749.47;5069323;28;20192;-65
2023/03/07 01:42:43;;;;;;;1.03;1.03;;;;;;;5.88;98.02;98765.91;5061375;28;20200;-65
2023/03/07 01:45:49;;;;;;;0.80;0.80;;;;;;;5.70;99.28;98756.94;5054417;28;20284;-65
2023/03/07 01:48:17;;;;;;;0.53;0.53;;;;;;;5.64;99.77;98761.31;5048244;28;20668;-65
2023/03/07 01:50:44;;;;;;;0.63;0.63;;;;;;;5.62;100.00;98763.06;5069710;28;20211;-65
2023/03/07 01:53:11;;;;;;;0.60;0.60;;;;;;;5.53;100.00;98760.69;5061081;28;20208;-65
2023/03/07 01:55:40;;;;;;;0.70;0.70;;;;;;;5.48;100.00;98765.03;5066939;28;20571;-65
2023/03/07 01:58:11;;;;;;;0.50;0.50;;;;;;;5.41;100.00;98749.06;5065869;28;20200;-65
2023/03/07 02:00:39;;;;;;;0.60;0.60;;;;;;;5.48;100.00;98760.78;5061426;28;20558;-65
2023/03/07 02:03:12;;;;;;;0.50;0.50;;;;;;;5.48;100.00;98745.53;5068341;28;20231;-65
2023/03/07 02:05:41;;;;;;;1.00;1.00;;;;;;;5.45;100.00;98740.53;5062850;28;20224;-65
2023/03/07 02:08:10;;;;;;;0.70;0.70;;;;;;;5.44;100.00;98743.06;5062176;28;20636;-65
2023/03/07 02:10:39;;;;;;;0.83;0.83;;;;;;;5.29;100.00;98719.66;5057989;28;20254;-66
2023/03/07 02:13:07;;;;;;;0.80;0.80;;;;;;;5.39;100.00;98743.19;5059862;28;20189;-65
2023/03/07 02:15:34;;;;;;;0.50;0.50;;;;;;;5.39;100.00;98743.19;5056216;28;20746;-65
2023/03/07 02:18:03;;;;;;;1.17;0.87;;;;;;;5.37;100.00;98741.53;5053918;28;20213;-65
2023/03/07 02:20:40;;;;;;;0.60;0.60;;;;;;;5.39;100.00;98749.97;5059156;28;20297;-65
2023/03/07 02:23:12;;;;;;;0.90;0.90;;;;;;;5.42;100.00;98755.00;5058626;28;20231;-65
2023/03/07 02:25:44;;;;;;;0.67;0.67;;;;;;;5.42;100.00;98760.06;5067379;28;20302;-65
2023/03/07 02:28:16;;;;;;;0.70;0.70;;;;;;;5.26;100.00;98750.22;5058963;28;20254;-65
2023/03/07 02:30:53;;;;;;;0.60;0.60;;;;;;;5.30;100.00;98756.88;5056927;28;20200;-65
2023/03/07 02:33:23;;;;;;;0.60;0.60;;;;;;;5.29;100.00;98750.16;5057276;28;20196;-65
2023/03/07 02:35:53;;;;;;;0.60;0.60;;;;;;;5.23;100.00;98741.81;5062336;28;20308;-65
2023/03/07 02:38:21;;;;;;;0.60;0.60;;;;;;;5.29;100.00;98750.16;5062990;28;20196;-65
2023/03/07 02:40:48;;;;;;;0.70;0.70;;;;;;;5.34;100.00;98756.81;5060058;28;20215;-65
2023/03/07 02:43:16;;;;;;;0.57;0.57;;;;;;;5.33;100.00;98760.25;5061598;28;20196;-65
2023/03/07 02:45:43;;;;;;;0.60;0.60;;;;;;;5.30;100.00;98763.66;5062625;28;20663;-65
2023/03/07 02:48:10;;;;;;;0.80;0.80;;;;;;;5.28;100.00;98761.19;5064853;28;20684;-66
2023/03/07 02:50:37;;;;;;;0.50;0.50;;;;;;;5.20;100.00;98755.38;5067649;28;20196;-65
2023/03/07 02:53:04;;;;;;;0.73;0.73;;;;;;;5.20;100.00;98752.84;5064113;28;20207;-65
2023/03/07 02:55:31;;;;;;;0.50;0.50;;;;;;;5.19;100.00;98748.66;5065160;28;20580;-65
2023/03/07 02:57:57;;;;;;;0.80;0.80;;;;;;;5.16;100.00;98746.16;5061491;28;20262;-65
2023/03/07 03:00:26;;;;;;;0.50;0.50;;;;;;;5.15;100.00;98736.88;5058180;28;20275;-65
2023/03/07 03:02:52;;;;;;;0.60;0.60;;;;;;;5.15;100.00;98746.19;5062751;28;20208;-65
2023/03/07 03:05:19;;;;;;;0.50;0.50;;;;;;;5.07;100.00;98728.53;5054553;28;20228;-65
2023/03/07 03:07:47;;;;;;;0.60;0.60;;;;;;;5.12;100.00;98736.94;5062130;28;20729;-65
2023/03/07 03:10:14;;;;;;;0.60;0.60;;;;;;;5.16;100.00;98732.63;5056024;28;20285;-65
2023/03/07 03:12:41;;;;;;;0.60;0.60;;;;;;;5.14;100.00;98744.50;5057735;28;20204;-66
2023/03/07 03:15:08;;;;;;;0.80;0.80;;;;;;;5.07;100.00;98733.63;5063676;28;20199;-65
2023/03/07 03:17:37;;;;;;;0.50;0.50;;;;;;;5.04;100.00;98740.50;5053297;28;20798;-65
2023/03/07 03:20:10;;;;;;;1.23;1.17;;;;;;;5.03;100.00;98739.66;5056072;28;20192;-65
2023/03/07 03:22:37;;;;;;;1.00;1.00;;;;;;;5.03;100.00;98744.72;5067584;28;20204;-65
2023/03/07 03:25:05;;;;;;;0.60;0.60;;;;;;;5.03;100.00;98739.66;5068458;28;20203;-65
2023/03/07 03:27:32;;;;;;;0.50;0.50;;;;;;;4.99;100.00;98739.72;5066352;28;20575;-66
2023/03/07 03:29:59;;;;;;;0.73;0.73;;;;;;;4.98;100.00;98743.13;5058718;28;20196;-66
2023/03/07 03:32:25;;;;;;;0.70;0.70;;;;;;;4.96;100.00;98740.63;5059282;28;20729;-66
2023/03/07 03:34:54;;;;;;;0.50;0.50;;;;;;;4.92;100.00;98735.59;5058132;28;20254;-66
2023/03/07 03:37:20;;;;;;;0.87;0.87;;;;;;;4.90;100.00;98744.97;5067635;28;20215;-66
2023/03/07 03:39:47;;;;;;;0.80;0.80;;;;;;;4.90;100.00;98740.72;5065178;28;20199;-65
2023/03/07 03:42:14;;;;;;;0.60;0.60;;;;;;;4.86;100.00;98741.66;5053208;28;20270;-66
2023/03/07 03:44:40;;;;;;;0.60;0.60;;;;;;;4.82;100.00;98737.47;5061458;28;20200;-66
2023/03/07 03:47:07;;;;;;;0.50;0.50;;;;;;;4.83;100.00;98739.16;5058159;28;20549;-66
2023/03/07 03:49:34;;;;;;;0.73;0.73;;;;;;;4.84;100.00;98745.94;5068316;28;20668;-66
2023/03/07 03:52:03;;;;;;;0.60;0.60;;;;;;;4.83;100.00;98746.78;5058989;28;20254;-66
2023/03/07 03:54:30;;;;;;;1.00;0.87;;;;;;;4.82;100.00;98745.09;5066431;28;20692;-66
2023/03/07 03:56:57;;;;;;;0.60;0.60;;;;;;;4.83;100.00;98749.31;5064933;28;20687;-66
2023/03/07 03:59:24;;;;;;;0.60;0.60;;;;;;;4.83;99.87;98749.31;5063679;28;20560;-66
2023/03/07 04:01:51;;;;;;;0.60;0.60;;;;;;;4.81;99.77;98755.28;5058262;28;20208;-66
2023/03/07 04:04:18;;;;;;;0.67;0.67;;;;;;;4.72;99.73;98741.88;5063301;28;20201;-66
2023/03/07 04:06:45;;;;;;;0.70;0.70;;;;;;;4.81;99.92;98760.38;5056397;28;20195;-66
2023/03/07 04:09:13;;;;;;;0.60;0.60;;;;;;;4.72;99.98;98741.03;5067805;28;20211;-66
2023/03/07 04:11:39;;;;;;;0.60;0.60;;;;;;;4.76;99.76;98758.75;5065046;28;20212;-66
2023/03/07 04:14:06;;;;;;;0.50;0.50;;;;;;;4.72;100.00;98758.81;5070716;28;20222;-66
2023/03/07 04:16:33;;;;;;;0.70;0.70;;;;;;;4.71;99.84;98758.00;5066768;28;20588;-66
2023/03/07 04:19:00;;;;;;;0.63;0.63;;;;;;;4.70;100.00;98747.84;5069225;28;20204;-66
2023/03/07 04:21:27;;;;;;;0.80;0.80;;;;;;;4.67;100.00;98753.81;5057938;28;20655;-66
2023/03/07 04:23:56;;;;;;;0.80;0.80;;;;;;;4.61;100.00;98742.94;5060579;28;20579;-66
2023/03/07 04:26:24;;;;;;;0.70;0.70;;;;;;;4.54;100.00;98754.06;5066601;28;20200;-66
2023/03/07 04:28:50;;;;;;;0.60;0.60;;;;;;;4.46;100.00;98748.28;5061780;28;20270;-67
2023/03/07 04:31:19;;;;;;;0.63;0.63;;;;;;;4.44;100.00;98755.06;5063777;28;20227;-66
2023/03/07 04:33:47;;;;;;;0.60;0.60;;;;;;;4.45;100.00;98771.97;5061912;28;20197;-66
2023/03/07 04:36:16;;;;;;;0.60;0.60;;;;;;;4.40;100.00;98782.19;5062092;28;20668;-65
2023/03/07 04:38:43;;;;;;;0.80;0.80;;;;;;;4.37;100.00;98786.47;5068153;28;20212;-65
2023/03/07 04:41:13;;;;;;;0.60;0.60;;;;;;;4.37;100.00;98786.47;5061809;28;20196;-66
2023/03/07 04:43:41;;;;;;;0.60;0.60;;;;;;;4.35;100.00;98771.28;5057145;28;20239;-66
2023/03/07 04:46:09;;;;;;;0.50;0.50;;;;;;;4.34;100.00;98768.75;5062980;28;20204;-66
2023/03/07 04:48:36;;;;;;;0.70;0.70;;;;;;;4.30;100.00;98767.13;5064883;28;20204;-66
2023/03/07 04:51:04;;;;;;;0.60;0.60;;;;;;;4.21;100.00;98768.94;5057079;28;20197;-66
2023/03/07 04:53:31;;;;;;;0.70;0.70;;;;;;;4.18;100.00;98766.44;5061705;28;20212;-66
2023/03/07 04:55:59;;;;;;;0.60;0.60;;;;;;;4.17;100.00;98767.28;5058068;28;20197;-66
2023/03/07 04:58:26;;;;;;;0.57;0.57;;;;;;;4.11;100.00;98757.25;5059663;28;20220;-66
2023/03/07 05:00:56;;;;;;;0.70;0.70;;;;;;;4.16;100.00;98775.78;5060510;28;20548;-66
2023/03/07 05:03:23;;;;;;;0.60;0.60;;;;;;;4.18;100.00;98774.06;5066880;28;20295;-66
2023/03/07 05:05:50;;;;;;;0.73;0.73;;;;;;;4.17;100.00;98777.44;5064414;28;20224;-66
2023/03/07 05:08:17;;;;;;;0.70;0.70;;;;;;;4.15;100.00;98763.97;5062789;28;20199;-66
2023/03/07 05:10:44;;;;;;;0.63;0.63;;;;;;;4.19;100.00;98759.69;5060400;28;20197;-66
2023/03/07 05:13:11;;;;;;;0.50;0.50;;;;;;;4.16;100.00;98755.50;5058520;28;20196;-66
2023/03/07 05:15:40;;;;;;;1.00;1.00;;;;;;;4.12;100.00;98748.78;5060213;28;20204;-66
2023/03/07 05:18:08;;;;;;;0.60;0.60;;;;;;;4.27;100.00;98773.06;5059739;28;20598;-66
2023/03/07 05:20:35;;;;;;;0.70;0.70;;;;;;;4.26;100.00;98780.72;5060434;28;20201;-66
2023/03/07 05:23:01;;;;;;;0.60;0.60;;;;;;;4.15;100.00;98769.03;5065533;28;20676;-66
2023/03/07 05:25:28;;;;;;;0.60;0.60;;;;;;;4.23;100.00;98792.56;5062049;28;20611;-66
2023/03/07 05:27:55;;;;;;;0.80;0.80;;;;;;;4.13;100.00;98801.19;5063017;28;20194;-66
2023/03/07 05:30:22;;;;;;;0.53;0.53;;;;;;;4.16;100.00;98791.00;5056577;28;20586;-66
2023/03/07 05:32:50;;;;;;;0.73;0.73;;;;;;;4.19;100.00;98788.44;5052673;28;20204;-66
2023/03/07 05:35:19;;;;;;;0.57;0.57;;;;;;;4.23;100.00;98790.03;5059344;28;20725;-66
2023/03/07 05:37:46;;;;;;;0.57;0.57;;;;;;;4.27;100.00;98787.44;5060928;28;20310;-66
2023/03/07 05:40:14;;;;;;;0.70;0.70;;;;;;;4.31;100.00;98784.00;5065167;28;20196;-66
2023/03/07 05:42:41;;;;;;;0.67;0.67;;;;;;;4.33;100.00;98789.94;5062115;28;20745;-66
2023/03/07 05:45:09;;;;;;;0.70;0.70;;;;;;;4.25;100.00;98774.81;5059307;28;20197;-66
2023/03/07 05:47:35;;;;;;;0.60;0.60;;;;;;;4.45;100.00;98793.09;5059133;28;20204;-66
2023/03/07 05:50:02;;;;;;;0.50;0.50;;;;;;;4.49;100.00;98796.44;5059947;28;20200;-66
2023/03/07 05:52:30;;;;;;;0.50;0.50;;;;;;;4.52;100.00;98791.31;5060086;28;20204;-66
2023/03/07 05:54:57;;;;;;;0.50;0.50;;;;;;;4.55;100.00;98789.56;5058325;28;20329;-66
2023/03/07 05:57:24;;;;;;;0.70;0.70;;;;;;;4.55;100.00;98791.28;5058554;28;20239;-63
2023/03/07 05:59:51;;;;;;;0.63;0.63;;;;;;;4.52;100.00;98782.00;5063729;28;20196;-67
2023/03/07 06:02:18;;;;;;;0.77;0.77;;;;;;;4.72;100.00;98796.88;5059275;28;20196;-66
2023/03/07 06:04:45;;;;;;;0.70;0.70;;;;;;;4.78;100.00;98806.97;5061082;28;20329;-65
2023/03/07 06:07:12;;;;;;;0.70;0.70;;;;;;;4.86;100.00;98805.13;5060074;28;20227;-65
2023/03/07 06:09:40;;;;;;;0.60;0.60;;;;;;;4.94;100.00;98805.84;5064607;28;20667;-66
2023/03/07 06:12:09;;;;;;;1.00;0.70;;;;;;;5.03;100.00;98803.16;5055733;28;20597;-64
2023/03/07 06:14:36;;;;;;;0.50;0.50;;;;;;;5.12;100.00;98797.91;5061491;28;20253;-64
2023/03/07 06:17:03;;;;;;;1.13;1.13;;;;;;;5.23;100.00;98795.16;5055369;28;20263;-65
2023/03/07 06:19:30;;;;;;;0.50;0.50;;;;;;;5.36;100.00;98808.47;5064941;28;20208;-65
2023/03/07 06:21:57;;;;;;;0.80;0.80;;;;;;;5.39;100.00;98810.97;5062218;28;20196;-65
2023/03/07 06:24:24;;;;;;;0.50;0.50;;;;;;;5.41;100.00;98816.84;5057440;28;20197;-67
2023/03/07 06:26:52;;;;;;;1.17;1.17;;;;;;;5.42;100.00;98818.53;5069370;28;20196;-67
2023/03/07 06:29:19;;;;;;;0.67;0.67;;;;;;;5.42;100.00;98821.06;5066517;28;20208;-67
2023/03/07 06:31:45;;;;;;;0.50;0.50;;;;;;;5.51;100.00;98820.88;5056160;28;20635;-67
2023/03/07 06:34:12;;;;;;;0.50;0.50;;;;;;;5.54;100.00;98805.59;5065898;28;20845;-67
2023/03/07 06:36:39;;;;;;;0.70;0.70;;;;;;;5.60;100.00;98808.00;5066084;28;20200;-67
2023/03/07 06:39:06;;;;;;;0.70;0.70;;;;;;;5.66;100.00;98812.97;5057884;28;20215;-67
2023/03/07 06:41:33;;;;;;;3.83;1.43;;;;;;;5.72;100.00;98821.31;5062361;28;20273;-67
2023/03/07 06:44:01;;;;;;;0.70;0.70;;;;;;;5.77;100.00;98822.06;5061823;28;20617;-66
2023/03/07 06:46:28;;;;;;;0.60;0.60;;;;;;;5.87;100.00;98814.28;5061195;28;20634;-67
2023/03/07 06:48:55;;;;;;;0.77;0.77;;;;;;;5.97;100.00;98820.84;5061305;28;20193;-67
2023/03/07 06:51:22;;;;;;;0.60;0.60;;;;;;;6.03;100.00;98818.16;5058020;28;20245;-67
2023/03/07 06:53:48;;;;;;;1.07;1.07;;;;;;;6.18;100.00;98831.41;5068125;28;20199;-67
2023/03/07 06:56:15;;;;;;;0.60;0.60;;;;;;;6.34;100.00;98804.75;5062488;28;20671;-67
2023/03/07 06:58:42;;;;;;;0.87;0.87;;;;;;;6.55;100.00;98816.16;5068580;28;20265;-67
2023/03/07 07:01:17;;;;;;;0.57;0.57;;;;;;;6.66;100.00;98805.69;5061264;28;20253;-67
2023/03/07 07:03:44;;;;;;;0.60;0.60;;;;;;;6.87;100.00;98807.72;5056659;28;20207;-67
2023/03/07 07:06:10;;;;;;;0.40;0.40;;;;;;;7.02;100.00;98809.88;5061642;28;20231;-67
2023/03/07 07:08:37;;;;;;;0.63;0.63;;;;;;;7.19;100.00;98817.94;5059625;28;20227;-67
2023/03/07 07:11:04;;;;;;;0.50;0.50;;;;;;;7.29;100.00;98821.94;5056092;28;20197;-67
2023/03/07 07:13:31;;;;;;;0.80;0.80;;;;;;;7.48;100.00;98816.34;5060930;28;20219;-67
2023/03/07 07:16:03;;;;;;;0.70;0.70;;;;;;;7.67;100.00;98813.25;5061344;28;20655;-66
2023/03/07 07:18:32;;;;;;;0.60;0.60;;;;;;;7.90;100.00;98815.16;5060182;28;20250;-67
2023/03/07 07:20:58;;;;;;;0.60;0.60;;;;;;;8.13;100.00;98817.88;5062071;28;20209;-67
2023/03/07 07:23:25;;;;;;;0.60;0.60;;;;;;;8.40;100.00;98822.16;5059524;28;20219;-67
2023/03/07 07:25:52;;;;;;;0.40;0.40;;;;;;;8.59;100.00;98824.16;5063684;28;20200;-68
2023/03/07 07:28:19;;;;;;;0.70;0.70;;;;;;;8.81;100.00;98817.47;5062605;28;20203;-67
2023/03/07 07:30:46;;;;;;;0.53;0.53;;;;;;;9.07;100.00;98820.03;5053808;28;20204;-68
2023/03/07 07:33:12;;;;;;;0.80;0.80;;;;;;;9.03;100.00;98774.16;5056370;28;20359;-67
2023/03/07 07:35:42;;;;;;;0.60;0.60;;;;;;;9.53;100.00;98819.28;5058332;28;20276;-68
2023/03/07 07:38:09;;;;;;;0.63;0.63;;;;;;;9.72;100.00;98829.72;5057528;28;20265;-67
2023/03/07 07:40:35;;;;;;;0.97;0.97;;;;;;;9.93;97.99;98829.75;5063003;28;20200;-67
2023/03/07 07:43:02;;;;;;;0.50;0.50;;;;;;;10.03;98.65;98827.69;5061337;28;20205;-67
2023/03/07 07:45:29;;;;;;;0.50;0.50;;;;;;;10.27;97.48;98826.81;5058420;28;20254;-67
2023/03/07 07:47:56;;;;;;;0.40;0.40;;;;;;;10.45;96.70;98831.22;5062899;28;20255;-67
2023/03/07 07:50:23;;;;;;;0.60;0.60;;;;;;;10.69;94.24;98831.16;5058072;28;20204;-66
2023/03/07 07:52:52;;;;;;;0.80;0.80;;;;;;;10.85;93.37;98825.38;5060772;28;20235;-67
2023/03/07 07:55:19;;;;;;;0.47;0.47;;;;;;;11.09;91.88;98826.09;5060643;28;20216;-66
2023/03/07 07:57:46;;;;;;;0.90;0.90;;;;;;;11.31;90.55;98826.84;5063009;28;20664;-67
2023/03/07 08:00:18;;;;;;;0.83;0.83;;;;;;;11.42;90.28;98824.69;5061822;28;20265;-67
2023/03/07 08:02:44;;;;;;;0.40;0.40;;;;;;;11.53;90.30;98824.22;5060826;28;20204;-67
2023/03/07 08:05:12;;;;;;;0.77;0.77;;;;;;;11.65;89.64;98825.41;5059001;28;20633;-67
2023/03/07 08:07:38;;;;;;;0.50;0.50;;;;;;;11.83;89.81;98825.47;5059653;28;20295;-66
2023/03/07 08:10:09;;;;;;;0.40;0.40;;;;;;;11.88;89.13;98818.41;5064616;28;20200;-67
2023/03/07 08:12:36;;;;;;;0.67;0.67;;;;;;;11.96;87.94;98813.75;5050395;28;20572;-67
2023/03/07 08:15:03;;;;;;;0.80;0.80;;;;;;;12.02;88.03;98815.19;5063948;28;20295;-67
2023/03/07 08:17:30;;;;;;;0.50;0.50;;;;;;;11.95;87.67;98824.09;5054959;28;20255;-68
2023/03/07 08:20:00;;;;;;;0.40;0.40;;;;;;;12.07;88.19;98823.53;5059946;28;20273;-68
2023/03/07 08:22:27;;;;;;;0.50;0.50;;;;;;;12.20;87.08;98819.50;5058546;28;21474;-67
2023/03/07 08:24:53;;;;;;;0.40;0.40;;;;;;;12.40;87.17;98821.16;5058943;28;20193;-67
2023/03/07 08:27:21;;;;;;;0.50;0.50;;;;;;;12.52;86.05;98818.00;5056861;28;20627;-67
2023/03/07 08:29:48;;;;;;;0.83;0.83;;;;;;;12.68;85.81;98820.69;5057350;28;20192;-67
2023/03/07 08:32:15;;;;;;;0.60;0.60;;;;;;;12.88;84.38;98823.13;5058561;28;20699;-65
2023/03/07 08:34:42;;;;;;;0.50;0.50;;;;;;;12.97;84.03;98822.69;5053996;28;20230;-65
2023/03/07 08:37:09;;;;;;;0.80;0.80;;;;;;;12.99;83.50;98823.44;5052201;28;21845;-65
2023/03/07 08:39:36;;;;;;;0.80;0.80;;;;;;;12.99;84.05;98811.41;5055352;28;20693;-65
2023/03/07 08:42:03;;;;;;;0.60;0.60;;;;;;;13.16;83.82;98818.31;5054688;28;20200;-65
2023/03/07 08:44:31;;;;;;;1.50;1.33;;;;;;;13.22;82.58;98818.03;5059368;28;20646;-66
2023/03/07 08:46:58;;;;;;;0.50;0.50;;;;;;;13.32;82.69;98819.22;5053720;28;20997;-65
2023/03/07 08:49:24;;;;;;;0.60;0.60;;;;;;;13.40;84.93;98811.97;5056303;28;20259;-65
2023/03/07 08:51:51;;;;;;;0.53;0.53;;;;;;;13.51;81.78;98817.38;5052511;28;20207;-65
2023/03/07 08:54:18;;;;;;;0.80;0.80;;;;;;;13.59;80.80;98817.84;5051901;28;20217;-66
2023/03/07 08:56:45;;;;;;;0.60;0.60;;;;;;;13.41;83.40;98766.44;5051212;28;20227;-65
2023/03/07 08:59:12;;;;;;;0.40;0.40;;;;;;;13.67;81.40;98809.69;5057228;28;20267;-65
2023/03/07 09:01:40;;;;;;;0.50;0.50;;;;;;;13.76;83.00;98814.38;5060881;28;20219;-66
2023/03/07 09:04:06;;;;;;;0.90;0.90;;;;;;;13.97;85.14;98802.94;5056561;28;20266;-66
2023/03/07 09:06:33;;;;;;;0.50;0.50;;;;;;;14.16;79.93;98810.50;5053896;28;20263;-66
2023/03/07 09:09:00;;;;;;;1.10;0.73;;;;;;;14.47;79.10;98807.97;5055824;28;20202;-66
2023/03/07 09:11:27;;;;;;;0.50;0.50;;;;;;;14.69;78.34;98813.59;5055435;28;20218;-66
2023/03/07 09:13:53;;;;;;;0.50;0.50;;;;;;;14.78;78.48;98801.06;5055258;28;20200;-66
2023/03/07 09:16:21;;;;;;;0.80;0.80;;;;;;;14.87;77.89;98810.88;5053644;28;20201;-66
2023/03/07 09:18:49;;;;;;;0.63;0.63;;;;;;;14.90;76.54;98808.94;5055428;28;20956;-65
2023/03/07 09:21:15;;;;;;;0.50;0.50;;;;;;;14.93;80.51;98800.19;5053415;28;20223;-65
2023/03/07 09:23:42;;;;;;;0.50;0.50;;;;;;;15.11;77.72;98805.16;5060810;28;20246;-66
2023/03/07 09:26:10;;;;;;;0.77;0.77;;;;;;;15.18;75.98;98800.47;5059602;28;20210;-65
2023/03/07 09:28:36;;;;;;;0.70;0.70;;;;;;;15.26;76.96;98787.91;5058039;28;20672;-65
2023/03/07 09:31:07;;;;;;;1.30;1.30;;;;;;;15.08;74.70;98789.84;5055262;28;20262;-66
2023/03/07 09:33:34;;;;;;;0.67;0.67;;;;;;;15.00;75.10;98786.84;5057251;28;20555;-66
2023/03/07 09:36:04;;;;;;;0.70;0.70;;;;;;;15.10;76.14;98771.66;5055450;28;20253;-66
2023/03/07 09:38:31;;;;;;;0.60;0.60;;;;;;;15.18;74.03;98779.81;5059513;28;20287;-66
2023/03/07 09:41:07;;;;;;;1.03;0.97;;;;;;;15.28;76.17;98780.94;5066631;28;20204;-66
2023/03/07 09:43:43;;;;;;;0.83;0.83;;;;;;;15.42;74.09;98782.66;5065013;28;20262;-66
2023/03/07 09:46:21;;;;;;;0.60;0.60;;;;;;;15.55;71.85;98784.47;5056179;28;20266;-66
2023/03/07 09:49:01;;;;;;;0.70;0.70;;;;;;;15.73;74.84;98785.13;5062759;28;20273;-66
2023/03/07 09:51:37;;;;;;;0.87;0.87;;;;;;;15.83;72.57;98780.22;5063953;28;20363;-64
2023/03/07 09:54:09;;;;;;;0.83;0.83;;;;;;;15.75;70.92;98786.69;5061608;28;20203;-64
2023/03/07 09:56:40;;;;;;;0.90;0.90;;;;;;;15.66;71.46;98778.66;5069978;28;20671;-64
2023/03/07 09:59:15;;;;;;;0.60;0.60;;;;;;;15.67;70.73;98773.38;5054781;28;20650;-63
2023/03/07 10:01:44;;;;;;;1.90;0.73;;;;;;;15.66;72.74;98765.75;5062498;28;20203;-63
2023/03/07 10:04:17;;;;;;;1.10;1.10;;;;;;;15.74;73.03;98766.94;5059068;28;20201;-64
2023/03/07 10:06:52;;;;;;;0.63;0.63;;;;;;;15.67;69.87;98752.72;5055605;28;20266;-63
2023/03/07 10:09:21;;;;;;;0.40;0.40;;;;;;;15.77;69.98;98758.97;5053108;28;20204;-63
2023/03/07 10:12:16;;;;;;;0.50;0.50;;;;;;;15.99;69.31;98749.91;5065957;28;20212;-64
2023/03/07 10:14:59;;;;;;;0.60;0.60;;;;;;;16.08;70.52;98732.06;5059256;28;20231;-64
2023/03/07 10:17:42;;;;;;;1.60;0.73;;;;;;;16.16;68.64;98740.16;5061341;28;20257;-64
2023/03/07 10:20:19;;;;;;;1.00;1.00;;;;;;;16.28;69.07;98744.56;5056032;28;20218;-63
2023/03/07 10:22:56;;;;;;;0.60;0.60;;;;;;;16.33;67.55;98741.69;5060480;28;20717;-64
2023/03/07 10:25:26;;;;;;;2.23;0.83;;;;;;;16.43;67.71;98735.00;5056127;28;20204;-66
2023/03/07 10:28:00;;;;;;;0.67;0.67;;;;;;;16.43;66.68;98729.81;5055691;28;20358;-67
2023/03/07 10:30:31;;;;;;;0.60;0.60;;;;;;;16.44;66.33;98725.47;5054697;28;20204;-67
2023/03/07 10:33:00;;;;;;;0.50;0.50;;;;;;;16.31;65.95;98722.03;5063103;28;20266;-67
2023/03/07 10:35:39;;;;;;;0.60;0.60;;;;;;;16.31;65.58;98707.34;5062406;28;20567;-67
2023/03/07 10:38:19;;;;;;;0.50;0.50;;;;;;;16.42;65.25;98710.03;5063743;28;20200;-67
2023/03/07 10:40:50;;;;;;;0.43;0.43;;;;;;;16.31;62.81;98709.94;5055212;28;20220;-67
2023/03/07 10:43:23;;;;;;;0.50;0.50;;;;;;;16.18;64.73;98703.88;5060868;28;20629;-67
2023/03/07 10:45:52;;;;;;;0.50;0.50;;;;;;;16.24;64.95;98703.47;5059357;28;20250;-67
2023/03/07 10:48:21;;;;;;;0.53;0.53;;;;;;;16.35;64.07;98698.44;5057064;28;20195;-66
2023/03/07 10:50:56;;;;;;;1.97;1.87;;;;;;;16.44;64.46;98692.69;5062887;28;20204;-64
2023/03/07 10:53:26;;;;;;;0.73;0.73;;;;;;;16.26;63.13;98650.72;5063373;28;20200;-64
2023/03/07 10:56:09;;;;;;;0.70;0.70;;;;;;;16.46;63.24;98680.47;5056324;28;20691;-64
2023/03/07 10:58:36;;;;;;;0.40;0.40;;;;;;;16.60;64.35;98661.50;5053630;28;20207;-64
2023/03/07 11:01:15;;;;;;;0.50;0.50;;;;;;;16.69;65.80;98666.88;5069402;28;20634;-67
2023/03/07 11:03:46;;;;;;;1.60;1.57;;;;;;;16.77;64.81;98662.00;5069427;28;20196;-68
2023/03/07 11:06:35;;;;;;;1.37;1.33;;;;;;;16.88;64.24;98660.47;5059396;28;20776;-68
2023/03/07 11:09:26;;;;;;;2.03;0.87;;;;;;;16.96;64.23;98653.00;5063357;28;20661;-68
2023/03/07 11:11:55;;;;;;;0.97;0.97;;;;;;;16.98;61.89;98656.31;5056833;28;20663;-67
2023/03/07 11:14:22;;;;;;;0.57;0.57;;;;;;;17.00;60.15;98654.44;5067927;28;20245;-67
2023/03/07 11:16:52;;;;;;;0.60;0.60;;;;;;;17.16;61.60;98639.50;5055918;28;20560;-67
2023/03/07 11:19:42;;;;;;;0.60;0.60;;;;;;;17.07;57.93;98640.16;5056752;28;20687;-67
2023/03/07 11:22:24;;;;;;;0.83;0.70;;;;;;;17.11;59.36;98626.91;5046544;28;20202;-68
2023/03/07 11:24:56;;;;;;;0.80;0.80;;;;;;;17.19;57.80;98624.59;5055328;28;20196;-68
2023/03/07 11:27:27;;;;;;;1.00;1.00;;;;;;;17.26;58.06;98610.28;5062156;28;20197;-68
2023/03/07 11:30:18;;;;;;;0.60;0.60;;;;;;;17.42;57.28;98604.03;5064268;28;20597;-68
2023/03/07 11:32:51;;;;;;;0.40;0.40;;;;;;;17.38;57.05;98598.25;5069521;28;20203;-68
2023/03/07 11:35:21;;;;;;;0.50;0.50;;;;;;;17.21;57.72;98594.25;5068861;28;20669;-65
2023/03/07 11:37:57;;;;;;;0.50;0.50;;;;;;;17.28;60.14;98586.88;5059273;28;20717;-65
2023/03/07 11:40:28;;;;;;;0.60;0.60;;;;;;;17.28;56.57;98585.13;5055115;28;20703;-65
2023/03/07 11:43:07;;;;;;;0.50;0.50;;;;;;;17.27;58.12;98582.63;5060645;28;20258;-65